Time;durP1;ratioP1;P1;durP2;ratioP2;P2;SDS_P1;SDS_P2;PMS_P1;PMS_P2;Temp;Humidity;BMP_temperature;BMP_pressure;BME280_temperature;BME280_humidity;BME280_pressure;Samples;Min_cycle;Max_cycle;Signal;HPM_P1;HPM_P2
2022/03/24 00:00:10;;;;;;;0.10;0.10;;;;;;;11.88;50.33;103108.88;5031919;28;20104;-81
2022/03/24 00:02:36;;;;;;;0.73;0.73;;;;;;;11.83;50.83;103111.47;5026950;28;20526;-80
2022/03/24 00:05:02;;;;;;;0.20;0.20;;;;;;;11.80;50.70;103112.34;5024568;28;20026;-80
2022/03/24 00:07:28;;;;;;;0.10;0.10;;;;;;;11.76;50.02;103110.53;5023439;28;20034;-80
2022/03/24 00:09:55;;;;;;;0.05;0.05;;;;;;;11.74;50.05;103106.03;5028516;28;20057;-80
2022/03/24 00:12:22;;;;;;;0.00;0.00;;;;;;;11.69;50.87;103105.09;5022105;28;20041;-80
2022/03/24 00:14:48;;;;;;;0.55;0.55;;;;;;;11.65;52.18;103106.81;5026755;28;20737;-80
2022/03/24 00:17:14;;;;;;;0.20;0.20;;;;;;;11.62;52.74;103105.03;5023986;28;20053;-80
2022/03/24 00:19:40;;;;;;;0.10;0.10;;;;;;;11.60;51.67;103104.13;5029411;28;20517;-80
2022/03/24 00:22:07;;;;;;;0.10;0.10;;;;;;;11.58;52.79;103105.88;5026295;28;20372;-79
2022/03/24 00:24:33;;;;;;;0.10;0.10;;;;;;;11.58;52.22;103100.56;5031526;28;20108;-79
2022/03/24 00:26:59;;;;;;;0.15;0.15;;;;;;;11.56;51.65;103102.28;5023035;28;20455;-79
2022/03/24 00:29:25;;;;;;;0.28;0.28;;;;;;;11.53;51.67;103102.28;5023220;28;20090;-79
2022/03/24 00:31:51;;;;;;;0.10;0.10;;;;;;;11.50;51.61;103096.91;5026243;28;20022;-80
2022/03/24 00:34:18;;;;;;;1.15;1.15;;;;;;;11.47;52.20;103097.78;5025714;28;20044;-79
2022/03/24 00:36:45;;;;;;;0.10;0.10;;;;;;;11.45;53.21;103102.19;5026076;28;20030;-79
2022/03/24 00:39:11;;;;;;;0.10;0.10;;;;;;;11.43;52.51;103103.03;5030393;28;20585;-80
2022/03/24 00:41:37;;;;;;;0.10;0.10;;;;;;;11.41;53.82;103105.66;5020387;28;20033;-79
2022/03/24 00:44:04;;;;;;;0.95;0.82;;;;;;;11.41;54.10;103096.81;5024024;28;20046;-79
2022/03/24 00:46:31;;;;;;;0.20;0.20;;;;;;;11.36;53.25;103093.22;5026151;28;20057;-80
2022/03/24 00:48:58;;;;;;;0.30;0.30;;;;;;;11.30;54.27;103094.91;5024801;28;20033;-80
2022/03/24 00:51:25;;;;;;;2.30;0.65;;;;;;;11.24;54.05;103092.19;5024673;28;20049;-80
2022/03/24 00:53:51;;;;;;;0.43;0.43;;;;;;;11.20;54.11;103095.66;5022245;28;20406;-80
2022/03/24 00:56:18;;;;;;;0.10;0.10;;;;;;;11.16;54.31;103096.47;5028769;28;20449;-80
2022/03/24 00:58:45;;;;;;;1.05;1.05;;;;;;;11.10;52.88;103094.66;5021217;28;20155;-80
2022/03/24 01:01:12;;;;;;;0.10;0.10;;;;;;;11.08;52.31;103091.06;5029275;28;20037;-80
2022/03/24 01:03:40;;;;;;;0.10;0.10;;;;;;;11.06;52.77;103089.28;5029243;28;20040;-80
2022/03/24 01:06:07;;;;;;;0.40;0.40;;;;;;;11.00;52.42;103090.97;5018062;28;20038;-81
2022/03/24 01:08:35;;;;;;;0.30;0.30;;;;;;;10.98;52.82;103087.41;5021230;28;20029;-81
2022/03/24 01:11:02;;;;;;;0.10;0.10;;;;;;;10.94;53.19;103089.97;5035678;28;20224;-80
2022/03/24 01:13:28;;;;;;;0.68;0.68;;;;;;;10.89;55.05;103087.28;5027810;28;20029;-80
2022/03/24 01:15:55;;;;;;;1.33;1.25;;;;;;;10.84;53.83;103088.94;5028737;28;20025;-81
2022/03/24 01:18:21;;;;;;;0.32;0.32;;;;;;;10.82;54.67;103085.41;5029781;28;20033;-81
2022/03/24 01:20:48;;;;;;;0.10;0.10;;;;;;;10.80;53.28;103081.81;5016700;28;20036;-81
2022/03/24 01:23:14;;;;;;;2.00;1.73;;;;;;;10.75;53.76;103079.09;5018286;28;20042;-80
2022/03/24 01:25:44;;;;;;;0.70;0.55;;;;;;;10.73;54.13;103079.94;5028570;28;20033;-81
2022/03/24 01:28:10;;;;;;;0.88;0.88;;;;;;;10.70;54.29;103080.78;5023824;28;20030;-80
2022/03/24 01:30:39;;;;;;;1.75;0.90;;;;;;;10.67;53.64;103078.97;5028214;28;20059;-80
2022/03/24 01:33:05;;;;;;;0.40;0.40;;;;;;;10.65;54.64;103087.78;5025853;28;20033;-79
2022/03/24 01:35:31;;;;;;;0.20;0.20;;;;;;;10.61;54.10;103073.59;5024858;28;20187;-80
2022/03/24 01:37:58;;;;;;;0.32;0.32;;;;;;;10.60;53.19;103078.88;5028505;28;20026;-79
2022/03/24 01:40:24;;;;;;;0.40;0.40;;;;;;;10.58;54.94;103077.94;5029917;28;20037;-79
2022/03/24 01:42:51;;;;;;;1.25;1.25;;;;;;;10.54;53.59;103070.81;5026683;28;20041;-80
2022/03/24 01:45:17;;;;;;;0.28;0.28;;;;;;;10.50;53.73;103076.09;5024120;28;20437;-81
2022/03/24 01:47:43;;;;;;;0.08;0.08;;;;;;;10.49;53.86;103076.03;5035875;28;20038;-81
2022/03/24 01:50:11;;;;;;;2.63;2.15;;;;;;;10.42;55.46;103068.84;5025258;28;20029;-80
2022/03/24 01:52:38;;;;;;;1.38;1.35;;;;;;;10.39;53.37;103063.50;5034662;28;20387;-81
2022/03/24 01:55:06;;;;;;;0.10;0.10;;;;;;;10.35;54.89;103066.09;5020734;28;20521;-80
2022/03/24 01:57:34;;;;;;;0.10;0.10;;;;;;;10.30;55.67;103065.09;5028562;28;20029;-80
2022/03/24 02:00:00;;;;;;;1.13;0.77;;;;;;;10.27;54.48;103075.66;5025989;28;20042;-80
2022/03/24 02:02:27;;;;;;;0.88;0.88;;;;;;;10.27;53.68;103070.34;5018216;28;20033;-80
2022/03/24 02:04:53;;;;;;;0.10;0.10;;;;;;;10.26;53.79;103068.56;5029018;28;20025;-80
2022/03/24 02:07:20;;;;;;;1.08;1.05;;;;;;;10.22;53.82;103069.38;5034172;28;20032;-80
2022/03/24 02:09:46;;;;;;;1.35;0.57;;;;;;;10.20;54.73;103063.16;5022884;28;20037;-80
2022/03/24 02:12:14;;;;;;;1.38;1.25;;;;;;;10.16;54.21;103067.50;5017879;28;20037;-79
2022/03/24 02:14:42;;;;;;;0.68;0.68;;;;;;;10.15;54.44;103065.72;5027178;28;20037;-80
2022/03/24 02:17:08;;;;;;;0.10;0.10;;;;;;;10.14;55.20;103058.66;5026185;28;20056;-80
2022/03/24 02:19:36;;;;;;;0.32;0.32;;;;;;;10.13;55.15;103062.19;5027853;28;20042;-81
2022/03/24 02:22:10;;;;;;;0.20;0.20;;;;;;;10.13;56.18;103061.25;5021198;28;20033;-80
2022/03/24 02:24:37;;;;;;;0.10;0.10;;;;;;;10.06;57.09;103056.75;5026218;28;20025;-80
2022/03/24 02:27:04;;;;;;;0.10;0.10;;;;;;;10.02;56.86;103059.31;5027338;28;20057;-80
2022/03/24 02:29:30;;;;;;;0.85;0.85;;;;;;;10.00;55.54;103053.09;5028010;28;20021;-80
2022/03/24 02:31:56;;;;;;;0.57;0.57;;;;;;;10.00;55.74;103058.41;5025327;28;20037;-79
2022/03/24 02:34:55;;;;;;;1.60;1.48;;;;;;;10.02;56.77;103061.97;5019723;28;20400;-80
2022/03/24 02:37:13;;;;;;;1.10;1.10;;;;;;;10.05;56.78;103053.19;5014229;28;21415;-80
2022/03/24 02:39:44;;;;;;;0.52;0.52;;;;;;;10.04;57.63;103054.97;5019338;28;20033;-80
2022/03/24 02:42:14;;;;;;;0.45;0.45;;;;;;;9.99;58.72;103054.00;5028652;28;20037;-80
2022/03/24 02:44:43;;;;;;;0.10;0.10;;;;;;;9.95;57.04;103068.03;5025004;28;20041;-80
2022/03/24 02:47:11;;;;;;;0.15;0.15;;;;;;;9.95;56.97;103057.44;5020856;28;20022;-80
2022/03/24 02:49:38;;;;;;;0.28;0.28;;;;;;;9.99;56.70;103063.66;5033633;28;20044;-80
2022/03/24 02:52:06;;;;;;;0.20;0.20;;;;;;;10.00;56.49;103058.41;5028294;28;20029;-81
2022/03/24 02:54:32;;;;;;;1.20;0.73;;;;;;;10.00;57.17;103063.69;5027957;28;20371;-80
2022/03/24 02:56:59;;;;;;;1.85;1.45;;;;;;;9.98;56.00;103060.16;5023090;28;20038;-80
2022/03/24 02:59:25;;;;;;;0.73;0.73;;;;;;;10.00;55.96;103054.88;5021024;28;20031;-80
2022/03/24 03:01:58;;;;;;;0.08;0.08;;;;;;;9.99;57.48;103051.34;5028429;28;20172;-80
2022/03/24 03:04:24;;;;;;;0.10;0.10;;;;;;;9.95;57.75;103059.19;5022920;28;20030;-80
2022/03/24 03:06:50;;;;;;;0.40;0.40;;;;;;;9.88;56.81;103050.22;5025426;28;20030;-80
2022/03/24 03:09:18;;;;;;;0.13;0.13;;;;;;;9.87;56.39;103053.75;5028272;28;20461;-80
2022/03/24 03:11:45;;;;;;;2.70;1.60;;;;;;;9.87;59.14;103053.75;5028145;28;20076;-80
2022/03/24 03:14:13;;;;;;;0.47;0.47;;;;;;;9.94;59.75;103055.63;5031614;28;20492;-80
2022/03/24 03:16:41;;;;;;;1.85;1.75;;;;;;;9.92;59.36;103054.75;5031734;28;20037;-80
2022/03/24 03:19:08;;;;;;;0.43;0.43;;;;;;;9.90;57.91;103055.56;5020982;28;20412;-79
2022/03/24 03:21:36;;;;;;;0.15;0.15;;;;;;;9.88;57.70;103050.22;5021922;28;20085;-80
2022/03/24 03:24:03;;;;;;;0.22;0.22;;;;;;;9.90;58.31;103052.94;5033496;28;20109;-80
2022/03/24 03:26:30;;;;;;;0.52;0.47;;;;;;;9.91;57.03;103055.59;5025588;28;20034;-80
2022/03/24 03:28:56;;;;;;;0.75;0.75;;;;;;;9.92;56.66;103057.38;5033723;28;20064;-80
2022/03/24 03:31:23;;;;;;;0.55;0.55;;;;;;;9.88;57.08;103058.16;5026586;28;20061;-80
2022/03/24 03:33:51;;;;;;;0.13;0.13;;;;;;;9.85;57.09;103050.19;5020773;28;20041;-80
2022/03/24 03:36:20;;;;;;;1.15;0.65;;;;;;;9.80;56.73;103054.50;5036530;28;20052;-80
2022/03/24 03:38:46;;;;;;;1.27;1.27;;;;;;;9.76;57.36;103052.63;5027404;28;20041;-80
2022/03/24 03:41:15;;;;;;;0.73;0.73;;;;;;;9.72;58.37;103059.66;5030735;28;20033;-80
2022/03/24 03:43:43;;;;;;;0.20;0.20;;;;;;;9.71;56.63;103063.16;5028725;28;20029;-80
2022/03/24 03:46:10;;;;;;;0.10;0.10;;;;;;;9.67;57.38;103054.28;5034510;28;20056;-80
2022/03/24 03:48:38;;;;;;;4.63;3.30;;;;;;;9.64;57.16;103058.63;5029409;28;20037;-80
2022/03/24 03:51:06;;;;;;;0.10;0.10;;;;;;;9.62;56.63;103061.25;5036470;28;20026;-80
2022/03/24 03:53:33;;;;;;;0.22;0.22;;;;;;;9.60;57.33;103059.41;5030340;28;20029;-80
2022/03/24 03:56:00;;;;;;;0.17;0.17;;;;;;;9.59;59.71;103057.63;5025633;28;20114;-80
2022/03/24 03:58:26;;;;;;;0.20;0.20;;;;;;;9.62;57.82;103052.38;5024398;28;20033;-80
2022/03/24 04:00:52;;;;;;;1.02;0.85;;;;;;;9.65;58.08;103058.63;5032846;28;20033;-80
2022/03/24 04:03:20;;;;;;;0.15;0.15;;;;;;;9.68;57.88;103060.44;5037500;28;20116;-80
2022/03/24 04:05:46;;;;;;;0.10;0.10;;;;;;;9.68;57.80;103064.00;5029203;28;20099;-80
2022/03/24 04:08:13;;;;;;;1.63;1.52;;;;;;;9.65;56.79;103053.34;5032115;28;20076;-79
2022/03/24 04:10:40;;;;;;;0.28;0.28;;;;;;;9.62;56.71;103055.94;5041510;28;20026;-80
2022/03/24 04:13:07;;;;;;;1.05;1.05;;;;;;;9.54;57.35;103050.50;5029836;28;20029;-80
2022/03/24 04:15:34;;;;;;;0.38;0.32;;;;;;;9.50;56.46;103055.69;5028154;28;20045;-80
2022/03/24 04:18:01;;;;;;;0.90;0.90;;;;;;;9.45;58.41;103055.59;5034831;28;20390;-80
2022/03/24 04:20:27;;;;;;;1.30;1.30;;;;;;;9.38;59.31;103059.88;5032821;28;20037;-80
2022/03/24 04:22:59;;;;;;;0.75;0.75;;;;;;;9.34;56.73;103052.72;5033884;28;20502;-80
2022/03/24 04:25:25;;;;;;;0.10;0.10;;;;;;;9.28;56.77;103052.59;5027435;28;20046;-80
2022/03/24 04:27:51;;;;;;;0.10;0.10;;;;;;;9.23;57.58;103054.25;5032463;28;20042;-80
2022/03/24 04:30:18;;;;;;;0.10;0.10;;;;;;;9.18;57.30;103047.97;5028581;28;20403;-80
2022/03/24 04:32:45;;;;;;;0.95;0.95;;;;;;;9.12;59.57;103059.34;5032433;28;20057;-81
2022/03/24 04:35:13;;;;;;;0.57;0.57;;;;;;;9.09;59.20;103066.31;5020490;28;20499;-80
2022/03/24 04:37:41;;;;;;;1.05;1.05;;;;;;;9.04;58.20;103064.44;5031146;28;20124;-80
2022/03/24 04:40:10;;;;;;;0.10;0.10;;;;;;;9.01;58.18;103064.38;5023858;28;20034;-80
2022/03/24 04:42:37;;;;;;;0.10;0.10;;;;;;;9.00;58.68;103067.88;5029324;28;20403;-79
2022/03/24 04:45:04;;;;;;;0.10;0.10;;;;;;;8.98;58.31;103061.66;5027168;28;20499;-79
2022/03/24 04:47:30;;;;;;;1.98;1.30;;;;;;;8.95;59.19;103066.88;5018925;28;20056;-79
2022/03/24 04:49:56;;;;;;;0.10;0.10;;;;;;;8.93;58.98;103065.06;5024828;28;20036;-79
2022/03/24 04:52:22;;;;;;;0.10;0.10;;;;;;;8.91;57.91;103062.41;5022018;28;20451;-80
2022/03/24 04:54:50;;;;;;;0.65;0.65;;;;;;;8.88;58.85;103067.59;5016796;28;21239;-79
2022/03/24 04:57:16;;;;;;;0.15;0.15;;;;;;;8.85;59.00;103067.53;5023848;28;20041;-80
2022/03/24 04:59:43;;;;;;;0.85;0.85;;;;;;;8.83;58.39;103063.97;5027538;28;20085;-78
2022/03/24 05:02:15;;;;;;;0.57;0.57;;;;;;;8.82;58.66;103068.38;5018500;28;20541;-78
2022/03/24 05:04:42;;;;;;;0.20;0.20;;;;;;;8.81;57.32;103070.94;5015547;28;20033;-78
2022/03/24 05:07:18;;;;;;;0.20;0.20;;;;;;;8.86;56.80;103064.00;5054777;23;20045;-82
2022/03/24 05:09:52;;;;;;;0.10;0.10;;;;;;;8.81;58.72;103073.59;5024223;28;20034;-83
2022/03/24 05:12:20;;;;;;;0.73;0.73;;;;;;;8.74;59.53;103070.81;5027406;28;20034;-83
2022/03/24 05:14:48;;;;;;;0.10;0.10;;;;;;;8.74;58.62;103075.22;5028678;28;20061;-83
2022/03/24 05:17:28;;;;;;;0.10;0.10;;;;;;;8.70;60.21;103078.66;5004750;28;20034;-82
2022/03/24 05:19:59;;;;;;;0.10;0.10;;;;;;;8.65;58.77;103074.97;5001328;28;20026;-83
2022/03/24 05:22:37;;;;;;;0.28;0.28;;;;;;;8.65;57.88;103074.97;5000718;28;20060;-83
2022/03/24 05:25:05;;;;;;;0.10;0.10;;;;;;;8.58;59.06;103081.88;5003331;28;20031;-83
2022/03/24 05:27:35;;;;;;;0.30;0.30;;;;;;;8.55;59.92;103076.53;5008256;28;20026;-83
2022/03/24 05:30:07;;;;;;;0.10;0.10;;;;;;;8.57;58.68;103077.44;5005921;28;20106;-82
2022/03/24 05:32:33;;;;;;;0.52;0.52;;;;;;;8.54;57.85;103072.97;5006357;28;20049;-83
2022/03/24 05:35:00;;;;;;;0.10;0.10;;;;;;;8.62;60.08;103081.09;5012168;28;20448;-82
2022/03/24 05:37:32;;;;;;;0.17;0.17;;;;;;;8.62;58.57;103081.09;5016349;28;20036;-83
2022/03/24 05:40:01;;;;;;;0.65;0.65;;;;;;;8.60;59.81;103082.81;5006797;28;20042;-83
2022/03/24 05:42:40;;;;;;;0.10;0.10;;;;;;;8.54;59.75;103082.66;5008205;28;20038;-83
2022/03/24 05:45:36;;;;;;;0.13;0.13;;;;;;;8.55;59.33;103089.75;5018418;28;20436;-82
2022/03/24 05:48:24;;;;;;;0.77;0.77;;;;;;;8.47;60.53;103080.72;5015317;28;20101;-83
2022/03/24 05:51:01;;;;;;;0.10;0.10;;;;;;;8.47;57.82;103086.00;5023152;28;20037;-83
2022/03/24 05:55:14;;;;;;;0.90;0.90;;;;;;;8.50;58.80;103091.34;5010017;28;20520;-82
2022/03/24 05:56:33;;;;;;;0.50;0.50;;;;;;;8.42;60.06;103092.03;5005263;28;20460;-83
2022/03/24 05:59:07;;;;;;;0.10;0.10;;;;;;;8.48;61.13;103090.44;5007707;28;20042;-83
2022/03/24 06:01:37;;;;;;;0.30;0.30;;;;;;;8.48;60.80;103090.44;5016295;28;20129;-83
2022/03/24 06:04:16;;;;;;;0.10;0.10;;;;;;;8.52;59.55;103087.00;5006880;28;20046;-83
2022/03/24 06:07:01;;;;;;;0.10;0.10;;;;;;;8.52;57.95;103081.72;5011637;28;20027;-83
2022/03/24 06:09:52;;;;;;;0.10;0.10;;;;;;;8.46;60.07;103084.19;5007831;28;20033;-83
2022/03/24 06:12:31;;;;;;;0.03;0.03;;;;;;;8.54;59.61;103085.31;5006245;28;20405;-83
2022/03/24 06:15:14;;;;;;;0.98;0.80;;;;;;;8.54;59.59;103087.94;5011929;28;20038;-83
2022/03/24 06:17:46;;;;;;;0.20;0.20;;;;;;;8.62;61.31;103086.38;5005097;28;20493;-83
2022/03/24 06:20:13;;;;;;;1.38;1.27;;;;;;;8.65;59.88;103082.91;5007312;28;20037;-83
2022/03/24 06:23:04;;;;;;;0.38;0.38;;;;;;;8.76;59.49;103085.81;5011858;28;20038;-83
2022/03/24 06:25:42;;;;;;;0.10;0.10;;;;;;;8.81;59.97;103081.53;5010845;28;20397;-82
2022/03/24 06:28:16;;;;;;;0.65;0.60;;;;;;;8.84;59.59;103087.78;5010310;28;20027;-83
2022/03/24 06:31:00;;;;;;;0.20;0.20;;;;;;;8.94;58.21;103080.97;5006349;28;20445;-83
2022/03/24 06:34:11;;;;;;;0.40;0.40;;;;;;;9.05;58.24;103086.50;5011534;28;20401;-83
2022/03/24 06:37:02;;;;;;;0.10;0.10;;;;;;;9.20;59.50;103091.22;4973582;28;20046;-83
2022/03/24 06:39:37;;;;;;;0.05;0.05;;;;;;;9.23;59.76;103081.63;4971112;28;20089;-83
2022/03/24 06:42:14;;;;;;;0.10;0.10;;;;;;;9.28;58.49;103080.81;4978659;28;20098;-83
2022/03/24 06:44:48;;;;;;;0.10;0.10;;;;;;;9.30;59.11;103082.63;4976359;28;20038;-83
2022/03/24 06:47:26;;;;;;;0.20;0.20;;;;;;;9.37;60.00;103083.63;4977843;28;20050;-83
2022/03/24 06:51:15;;;;;;;0.20;0.20;;;;;;;9.46;59.38;103088.22;4976572;28;20043;-83
2022/03/24 06:53:04;;;;;;;;;;;;;;;;;;;;;
2022/03/24 06:56:10;;;;;;;0.10;0.10;;;;;;;9.56;58.06;103090.22;4966619;28;20474;-83
2022/03/24 06:59:38;;;;;;;0.90;0.90;;;;;;;9.62;58.94;103089.44;4959123;28;20057;-83
2022/03/24 07:02:20;;;;;;;0.10;0.10;;;;;;;9.77;59.61;103094.16;4938801;28;20031;-82
2022/03/24 07:04:57;;;;;;;0.10;0.10;;;;;;;9.75;60.59;103090.59;4974469;28;20045;-83
2022/03/24 07:08:04;;;;;;;0.10;0.10;;;;;;;9.85;59.76;103092.56;4977601;28;20046;-83
2022/03/24 07:14:05;;;;;;;0.10;0.10;;;;;;;10.08;59.37;103094.72;4948987;28;20058;-86
2022/03/24 07:16:50;;;;;;;0.10;0.10;;;;;;;10.17;59.17;103090.50;4946064;28;20079;-84
2022/03/24 07:19:32;;;;;;;0.22;0.22;;;;;;;10.18;58.69;103091.38;4952714;28;20132;-85
2022/03/24 07:22:28;;;;;;;;;;;;;;;10.42;58.75;103096.25;4957043;28;20035;-85
2022/03/24 07:25:28;;;;;;;;;;;;;;;;;;;;;
2022/03/24 07:28:05;;;;;;;0.22;0.22;;;;;;;10.52;58.75;103102.59;4959534;28;20038;-85
2022/03/24 07:31:27;;;;;;;0.00;0.00;;;;;;;10.70;58.94;103101.13;4960141;28;20126;-85
2022/03/24 07:33:56;;;;;;;0.10;0.10;;;;;;;10.74;58.64;103102.94;4917835;28;20189;-87
2022/03/24 07:36:30;;;;;;;0.10;0.10;;;;;;;10.86;59.30;103097.81;4956957;28;20446;-87
2022/03/24 07:39:03;;;;;;;0.10;0.10;;;;;;;10.95;59.36;103103.28;4950963;28;20436;-87
2022/03/24 07:41:37;;;;;;;0.25;0.25;;;;;;;11.11;58.98;103103.50;4951689;28;20129;-87
2022/03/24 07:44:06;;;;;;;2.75;2.40;;;;;;;11.16;58.90;103101.78;4960239;28;20260;-87
2022/03/24 07:46:38;;;;;;;0.93;0.93;;;;;;;11.29;58.44;103103.75;4962650;28;20050;-88
2022/03/24 07:49:04;;;;;;;0.10;0.10;;;;;;;11.32;58.93;103103.78;4965755;28;20050;-87
2022/03/24 07:51:33;;;;;;;0.10;0.10;;;;;;;11.43;58.38;103100.38;5013664;28;20046;-89
2022/03/24 07:54:12;;;;;;;0.32;0.32;;;;;;;11.54;58.82;103104.06;5010094;28;20114;-85
2022/03/24 07:56:48;;;;;;;0.10;0.10;;;;;;;11.61;58.25;103105.03;5008620;28;20125;-86
2022/03/24 07:59:33;;;;;;;0.20;0.20;;;;;;;11.61;58.64;103111.25;5009571;28;20049;-91
2022/03/24 08:02:15;;;;;;;0.57;0.57;;;;;;;11.72;58.40;103106.03;5010138;28;20527;-90
2022/03/24 08:04:47;;;;;;;0.10;0.10;;;;;;;11.78;58.22;103118.50;4998626;28;20035;-86
2022/03/24 08:07:17;;;;;;;0.55;0.55;;;;;;;11.86;57.95;103127.44;4997328;28;20038;-86
2022/03/24 08:09:50;;;;;;;1.63;1.52;;;;;;;11.94;57.75;103117.78;4997183;28;20042;-86
2022/03/24 08:12:20;;;;;;;0.80;0.80;;;;;;;12.05;57.58;103117.03;4996298;28;20038;-86
2022/03/24 08:14:46;;;;;;;0.10;0.10;;;;;;;12.18;56.80;103123.41;4998290;28;20081;-86
2022/03/24 08:17:15;;;;;;;0.38;0.38;;;;;;;12.32;56.86;103128.84;5003788;28;20033;-86
2022/03/24 08:19:47;;;;;;;0.38;0.38;;;;;;;12.39;55.96;103133.34;5005477;28;20033;-85
2022/03/24 08:22:22;;;;;;;0.40;0.40;;;;;;;12.50;55.66;103128.09;5002348;28;20397;-86
2022/03/24 08:24:49;;;;;;;2.05;0.73;;;;;;;12.60;54.74;103128.19;5011910;28;20030;-85
2022/03/24 08:27:15;;;;;;;0.30;0.30;;;;;;;12.69;54.29;103127.38;5002893;28;20048;-87
2022/03/24 08:29:41;;;;;;;1.48;1.40;;;;;;;12.80;53.91;103130.13;5010592;28;20052;-87
2022/03/24 08:32:08;;;;;;;1.55;1.45;;;;;;;12.88;52.81;103128.41;5011646;28;20052;-86
2022/03/24 08:34:54;;;;;;;0.43;0.43;;;;;;;13.10;53.75;103124.09;5004577;28;20038;-90
2022/03/24 08:37:26;;;;;;;0.98;0.85;;;;;;;13.18;53.13;103124.16;5005642;28;20069;-89
2022/03/24 08:40:07;;;;;;;0.20;0.20;;;;;;;13.25;52.61;103128.63;5010409;28;20037;-90
2022/03/24 08:43:10;;;;;;;0.10;0.10;;;;;;;13.52;51.85;103121.72;5013437;28;20044;-91
2022/03/24 08:46:03;;;;;;;0.22;0.22;;;;;;;13.66;51.83;103128.88;5016466;28;20490;-92
2022/03/24 08:48:49;;;;;;;;;;;;;;;13.86;50.89;103127.13;5018952;28;20119;-92
2022/03/24 08:52:27;;;;;;;;;;;;;;;;;;;;;
2022/03/24 09:02:19;;;;;;;;;;;;;;;;;;;;;
2022/03/24 09:05:23;;;;;;;0.10;0.10;;;;;;;14.66;48.16;103139.72;4972784;28;20048;-91
2022/03/24 09:08:08;;;;;;;0.10;0.10;;;;;;;14.86;48.84;103139.69;4991465;28;20042;-91
2022/03/24 09:17:19;;;;;;;0.13;0.13;;;;;;;15.39;45.81;103139.59;4970079;28;20058;-91
2022/03/24 09:20:17;;;;;;;0.10;0.10;;;;;;;15.61;45.34;103139.50;4957253;28;20106;-92
2022/03/24 09:23:12;;;;;;;0.10;0.10;;;;;;;15.74;45.17;103134.97;4962157;28;20052;-92
2022/03/24 09:25:53;;;;;;;0.65;0.65;;;;;;;15.87;45.43;103141.19;4941410;28;20820;-91
2022/03/24 09:28:27;;;;;;;0.25;0.25;;;;;;;15.94;43.77;103140.28;4950323;28;20036;-91
2022/03/24 09:31:00;;;;;;;0.55;0.55;;;;;;;16.07;43.02;103144.63;4948975;29;20039;-91
2022/03/24 09:34:15;;;;;;;1.65;0.85;;;;;;;16.33;42.88;103141.75;4965664;28;20067;-92
2022/03/24 09:36:41;;;;;;;0.10;0.10;;;;;;;16.45;43.35;103146.16;4919537;28;20048;-93
2022/03/24 09:40:25;;;;;;;0.10;0.10;;;;;;;16.68;40.64;103147.75;4976276;28;20093;-92
2022/03/24 09:42:50;;;;;;;0.70;0.57;;;;;;;16.93;41.44;103136.84;4963079;28;20043;-92
2022/03/24 09:51:58;;;;;;;0.20;0.20;;;;;;;17.36;36.15;103141.72;4929950;29;20686;-92
2022/03/24 09:54:42;;;;;;;3.72;1.13;;;;;;;17.46;39.89;103134.47;4955129;28;20557;-90
2022/03/24 09:57:57;;;;;;;3.72;2.78;;;;;;;17.55;38.31;103130.78;4974432;28;20070;-91
2022/03/24 10:01:05;;;;;;;0.85;0.85;;;;;;;17.66;39.42;103133.31;4931337;29;20059;-91
2022/03/24 10:04:15;;;;;;;;;;;;;;;;;;;;;
2022/03/24 10:07:09;;;;;;;1.95;1.85;;;;;;;17.85;33.07;103128.59;4912735;28;20543;-91
2022/03/24 10:09:56;;;;;;;0.10;0.10;;;;;;;17.90;36.31;103132.09;4963220;28;20050;-91
2022/03/24 10:12:50;;;;;;;0.75;0.75;;;;;;;18.04;36.65;103139.97;4966745;28;20038;-92
2022/03/24 10:15:22;;;;;;;2.30;1.00;;;;;;;17.99;34.48;103131.97;4977627;28;20057;-90
2022/03/24 10:18:00;;;;;;;7.20;3.40;;;;;;;18.14;34.91;103127.31;5016851;28;20026;-92
2022/03/24 10:20:30;;;;;;;0.63;0.63;;;;;;;18.23;36.13;103132.50;5008810;28;20083;-85
2022/03/24 10:22:58;;;;;;;1.63;1.35;;;;;;;18.29;34.07;103124.38;5009199;28;20034;-86
2022/03/24 10:25:32;;;;;;;1.17;0.82;;;;;;;18.40;33.98;103127.75;5000726;28;20022;-84
2022/03/24 10:28:12;;;;;;;1.00;1.00;;;;;;;18.52;32.44;103128.50;5002868;28;20029;-85
2022/03/24 10:30:48;;;;;;;1.65;1.00;;;;;;;18.64;35.24;103128.28;5003695;28;20417;-89
2022/03/24 10:38:54;;;;;;;0.57;0.57;;;;;;;18.90;34.51;103124.22;5077453;27;20919;-80
2022/03/24 10:44:15;;;;;;;0.73;0.73;;;;;;;19.15;35.28;103127.38;5088692;27;20405;-80
2022/03/24 10:46:43;;;;;;;;;;;;;;;19.36;33.83;103120.63;5087864;28;20335;-80
2022/03/24 10:51:53;;;;;;;0.40;0.40;;;;;;;19.40;33.07;103117.00;5110360;27;20415;-82
2022/03/24 10:54:46;;;;;;;0.20;0.20;;;;;;;19.56;34.45;103122.03;5115561;28;20023;-80
2022/03/24 10:57:13;;;;;;;;;;;;;;;19.64;33.52;103117.38;5113253;28;20055;-81
2022/03/24 10:59:44;;;;;;;0.22;0.22;;;;;;;19.58;32.75;103117.50;5109100;28;19955;-82
2022/03/24 11:02:10;;;;;;;0.35;0.35;;;;;;;19.66;35.10;103120.91;5100599;28;20434;-81
2022/03/24 11:04:37;;;;;;;1.05;0.95;;;;;;;19.71;34.03;103119.03;5099163;28;20062;-83
2022/03/24 11:07:04;;;;;;;1.17;0.43;;;;;;;19.78;34.22;103117.06;5097631;22;20061;-83
2022/03/24 11:09:32;;;;;;;3.33;3.13;;;;;;;19.84;32.36;103118.78;5040594;28;20030;-83
2022/03/24 11:12:36;;;;;;;1.48;1.13;;;;;;;19.98;32.09;103113.06;5039631;28;20029;-82
2022/03/24 11:15:05;;;;;;;0.32;0.32;;;;;;;20.01;33.01;103113.00;5033056;28;20036;-85
2022/03/24 11:17:36;;;;;;;2.33;1.05;;;;;;;20.10;31.28;103106.50;5041983;28;20036;-85
2022/03/24 11:23:00;;;;;;;1.75;1.65;;;;;;;20.38;32.69;103108.53;5113509;27;20332;-78
2022/03/24 11:25:28;;;;;;;1.48;1.38;;;;;;;20.49;30.77;103106.44;5115799;28;20088;-77
2022/03/24 11:27:55;;;;;;;0.57;0.57;;;;;;;20.63;30.65;103108.78;5109380;28;20024;-77
2022/03/24 11:30:23;;;;;;;0.98;0.80;;;;;;;20.74;31.43;103113.91;5102405;28;20043;-77
2022/03/24 11:32:53;;;;;;;1.25;1.15;;;;;;;20.80;29.46;103106.53;5097931;28;20025;-78
2022/03/24 11:35:20;;;;;;;2.45;0.25;;;;;;;20.91;28.48;103100.88;5095786;28;20036;-78
2022/03/24 11:37:49;;;;;;;0.00;0.00;;;;;;;21.07;30.21;103097.72;5094626;28;20028;-78
2022/03/24 11:40:23;;;;;;;0.20;0.20;;;;;;;21.16;30.10;103098.34;5100534;28;20036;-78
2022/03/24 11:43:00;;;;;;;2.38;1.83;;;;;;;21.18;30.30;103092.91;5100420;28;20087;-77
2022/03/24 11:45:30;;;;;;;4.70;1.15;;;;;;;21.24;28.73;103087.31;5111105;28;20066;-77
2022/03/24 11:48:05;;;;;;;1.55;1.45;;;;;;;21.39;30.25;103086.00;5103036;28;20137;-78
2022/03/24 12:01:38;;;;;;;9.13;0.65;;;;;;;21.66;29.26;103083.41;5018223;28;20344;-78
2022/03/24 12:04:08;;;;;;;1.77;1.65;;;;;;;21.74;28.81;103083.19;5031712;28;20038;-78
2022/03/24 12:09:24;;;;;;;2.50;2.15;;;;;;;21.68;27.59;103064.47;5115256;27;20384;-79
2022/03/24 12:14:50;;;;;;;1.95;1.85;;;;;;;21.90;26.87;103064.69;5114290;27;20383;-78
2022/03/24 12:19:56;;;;;;;0.38;0.38;;;;;;;22.06;27.63;103059.66;5157319;27;20333;-79
2022/03/24 12:30:51;;;;;;;0.60;0.60;;;;;;;22.39;27.51;103059.47;5054531;28;20395;-79
2022/03/24 12:33:36;;;;;;;1.42;1.33;;;;;;;22.42;27.60;103049.44;5055196;28;20060;-79
2022/03/24 12:36:04;;;;;;;0.05;0.05;;;;;;;22.46;26.46;103042.13;5055126;28;20040;-78
2022/03/24 12:44:05;;;;;;;0.55;0.55;;;;;;;22.53;26.35;103038.25;5094668;28;20325;-78
2022/03/24 12:46:36;;;;;;;0.38;0.38;;;;;;;22.62;26.91;103039.75;5096264;28;20103;-78
2022/03/24 12:59:59;;;;;;;3.30;2.20;;;;;;;22.68;26.85;103030.53;5116532;27;20368;-78
2022/03/24 13:02:27;;;;;;;0.85;0.85;;;;;;;22.72;27.13;103029.50;5115953;28;20067;-77
2022/03/24 13:04:55;;;;;;;1.17;1.08;;;;;;;22.74;26.96;103024.88;5114280;28;20056;-78
2022/03/24 13:07:23;;;;;;;0.93;0.93;;;;;;;22.84;26.27;103017.31;5116365;28;20035;-78
2022/03/24 13:12:44;;;;;;;0.43;0.43;;;;;;;23.00;25.80;103015.81;5094273;27;20394;-79
2022/03/24 13:17:59;;;;;;;1.35;1.13;;;;;;;23.06;26.13;103015.56;5114954;27;20904;-78
2022/03/24 13:23:12;;;;;;;3.22;1.48;;;;;;;23.07;27.47;103011.06;5100472;27;1210371;-78
2022/03/24 13:25:41;;;;;;;0.52;0.52;;;;;;;23.22;27.36;103007.78;5115058;28;20056;-78
2022/03/24 13:28:08;;;;;;;1.75;1.65;;;;;;;23.36;26.31;103012.63;5114904;28;20032;-79
2022/03/24 13:30:36;;;;;;;0.32;0.32;;;;;;;23.48;27.28;103007.66;5099796;28;20036;-79
2022/03/24 13:33:05;;;;;;;0.60;0.60;;;;;;;23.51;27.26;102994.91;5094487;28;20024;-78
2022/03/24 13:35:35;;;;;;;0.85;0.85;;;;;;;23.53;27.51;102993.03;5094782;28;20123;-78